sensor_id;sensor_type;location;lat;lon;timestamp;P1;durP1;ratioP1;P2;durP2;ratioP2
40314;SDS011;26021;45.640;11.302;2022-11-12T00:00:30;11.43;;;5.00;;
40314;SDS011;26021;45.640;11.302;2022-11-12T00:02:56;12.93;;;7.55;;
40314;SDS011;26021;45.640;11.302;2022-11-12T00:05:22;12.23;;;5.85;;
40314;SDS011;26021;45.640;11.302;2022-11-12T00:07:47;7.63;;;4.82;;
40314;SDS011;26021;45.640;11.302;2022-11-12T00:10:13;6.15;;;3.70;;
40314;SDS011;26021;45.640;11.302;2022-11-12T00:12:39;9.88;;;5.13;;
40314;SDS011;26021;45.640;11.302;2022-11-12T00:15:04;12.88;;;6.07;;
40314;SDS011;26021;45.640;11.302;2022-11-12T00:17:30;13.27;;;6.43;;
40314;SDS011;26021;45.640;11.302;2022-11-12T00:19:55;13.07;;;6.32;;
40314;SDS011;26021;45.640;11.302;2022-11-12T00:22:21;16.20;;;7.03;;
40314;SDS011;26021;45.640;11.302;2022-11-12T00:24:46;12.95;;;5.40;;
40314;SDS011;26021;45.640;11.302;2022-11-12T00:27:12;12.02;;;5.93;;
40314;SDS011;26021;45.640;11.302;2022-11-12T00:29:38;11.63;;;5.78;;
40314;SDS011;26021;45.640;11.302;2022-11-12T00:32:07;8.63;;;5.30;;
40314;SDS011;26021;45.640;11.302;2022-11-12T00:34:33;9.95;;;3.97;;
40314;SDS011;26021;45.640;11.302;2022-11-12T00:36:59;8.35;;;4.82;;
40314;SDS011;26021;45.640;11.302;2022-11-12T00:39:25;7.57;;;4.30;;
40314;SDS011;26021;45.640;11.302;2022-11-12T00:41:51;5.20;;;3.63;;
40314;SDS011;26021;45.640;11.302;2022-11-12T00:44:16;8.43;;;4.15;;
40314;SDS011;26021;45.640;11.302;2022-11-12T00:46:42;5.35;;;4.07;;
40314;SDS011;26021;45.640;11.302;2022-11-12T00:49:07;4.25;;;3.50;;
40314;SDS011;26021;45.640;11.302;2022-11-12T00:51:33;4.45;;;2.97;;
40314;SDS011;26021;45.640;11.302;2022-11-12T00:53:59;2.95;;;2.50;;
40314;SDS011;26021;45.640;11.302;2022-11-12T00:56:24;3.63;;;2.92;;
40314;SDS011;26021;45.640;11.302;2022-11-12T00:58:50;3.47;;;3.10;;
40314;SDS011;26021;45.640;11.302;2022-11-12T01:01:15;6.57;;;3.20;;
40314;SDS011;26021;45.640;11.302;2022-11-12T01:03:41;3.85;;;3.45;;
40314;SDS011;26021;45.640;11.302;2022-11-12T01:06:13;5.30;;;3.05;;
40314;SDS011;26021;45.640;11.302;2022-11-12T01:08:43;4.63;;;3.63;;
40314;SDS011;26021;45.640;11.302;2022-11-12T01:11:20;5.75;;;3.85;;
40314;SDS011;26021;45.640;11.302;2022-11-12T01:13:51;7.47;;;2.80;;
40314;SDS011;26021;45.640;11.302;2022-11-12T01:16:19;3.65;;;2.65;;
40314;SDS011;26021;45.640;11.302;2022-11-12T01:18:46;5.32;;;2.10;;
40314;SDS011;26021;45.640;11.302;2022-11-12T01:21:12;4.18;;;2.40;;
40314;SDS011;26021;45.640;11.302;2022-11-12T01:23:38;4.57;;;2.63;;
40314;SDS011;26021;45.640;11.302;2022-11-12T01:26:07;3.65;;;2.50;;
40314;SDS011;26021;45.640;11.302;2022-11-12T01:28:35;3.75;;;2.55;;
40314;SDS011;26021;45.640;11.302;2022-11-12T01:31:14;3.33;;;2.30;;
40314;SDS011;26021;45.640;11.302;2022-11-12T01:33:44;2.30;;;1.90;;
40314;SDS011;26021;45.640;11.302;2022-11-12T01:36:12;5.15;;;2.20;;
40314;SDS011;26021;45.640;11.302;2022-11-12T01:38:40;2.53;;;2.08;;
40314;SDS011;26021;45.640;11.302;2022-11-12T01:41:07;2.40;;;1.70;;
40314;SDS011;26021;45.640;11.302;2022-11-12T01:43:34;2.72;;;1.70;;
40314;SDS011;26021;45.640;11.302;2022-11-12T01:46:00;2.53;;;2.10;;
40314;SDS011;26021;45.640;11.302;2022-11-12T01:48:34;3.83;;;1.80;;
40314;SDS011;26021;45.640;11.302;2022-11-12T01:51:03;1.92;;;1.70;;
40314;SDS011;26021;45.640;11.302;2022-11-12T01:53:30;2.72;;;1.55;;
40314;SDS011;26021;45.640;11.302;2022-11-12T01:56:03;4.10;;;1.70;;
40314;SDS011;26021;45.640;11.302;2022-11-12T01:58:30;1.88;;;1.67;;
40314;SDS011;26021;45.640;11.302;2022-11-12T02:00:58;1.35;;;1.20;;
40314;SDS011;26021;45.640;11.302;2022-11-12T02:03:25;2.28;;;1.40;;
40314;SDS011;26021;45.640;11.302;2022-11-12T02:05:52;1.90;;;1.50;;
40314;SDS011;26021;45.640;11.302;2022-11-12T02:08:21;1.55;;;1.13;;
40314;SDS011;26021;45.640;11.302;2022-11-12T02:10:48;4.70;;;1.80;;
40314;SDS011;26021;45.640;11.302;2022-11-12T02:13:14;1.58;;;1.42;;
40314;SDS011;26021;45.640;11.302;2022-11-12T02:15:59;1.95;;;1.38;;
40314;SDS011;26021;45.640;11.302;2022-11-12T02:18:24;3.38;;;1.20;;
40314;SDS011;26021;45.640;11.302;2022-11-12T02:20:53;2.35;;;1.50;;
40314;SDS011;26021;45.640;11.302;2022-11-12T02:23:21;2.28;;;1.25;;
40314;SDS011;26021;45.640;11.302;2022-11-12T02:25:46;3.22;;;1.27;;
40314;SDS011;26021;45.640;11.302;2022-11-12T02:28:12;1.48;;;1.23;;
40314;SDS011;26021;45.640;11.302;2022-11-12T02:30:39;2.25;;;1.30;;
40314;SDS011;26021;45.640;11.302;2022-11-12T02:33:07;1.42;;;1.10;;
40314;SDS011;26021;45.640;11.302;2022-11-12T02:35:32;1.50;;;1.10;;
40314;SDS011;26021;45.640;11.302;2022-11-12T02:37:58;1.33;;;1.23;;
40314;SDS011;26021;45.640;11.302;2022-11-12T02:40:23;1.23;;;1.13;;
40314;SDS011;26021;45.640;11.302;2022-11-12T02:42:48;2.03;;;0.90;;
40314;SDS011;26021;45.640;11.302;2022-11-12T02:45:14;2.25;;;1.08;;
40314;SDS011;26021;45.640;11.302;2022-11-12T02:47:40;1.88;;;1.20;;
40314;SDS011;26021;45.640;11.302;2022-11-12T02:50:06;1.20;;;1.10;;
40314;SDS011;26021;45.640;11.302;2022-11-12T02:52:32;1.13;;;0.93;;
40314;SDS011;26021;45.640;11.302;2022-11-12T02:54:57;2.13;;;0.80;;
40314;SDS011;26021;45.640;11.302;2022-11-12T02:57:23;0.93;;;0.80;;
40314;SDS011;26021;45.640;11.302;2022-11-12T02:59:48;12.88;;;9.20;;
40314;SDS011;26021;45.640;11.302;2022-11-12T03:02:14;11.05;;;7.50;;
40314;SDS011;26021;45.640;11.302;2022-11-12T03:04:39;1.40;;;1.30;;
40314;SDS011;26021;45.640;11.302;2022-11-12T03:07:04;2.05;;;1.50;;
40314;SDS011;26021;45.640;11.302;2022-11-12T03:09:30;1.08;;;0.98;;
40314;SDS011;26021;45.640;11.302;2022-11-12T03:11:55;0.73;;;0.73;;
40314;SDS011;26021;45.640;11.302;2022-11-12T03:14:20;1.13;;;0.90;;
40314;SDS011;26021;45.640;11.302;2022-11-12T03:16:46;0.75;;;0.75;;
40314;SDS011;26021;45.640;11.302;2022-11-12T03:19:11;1.45;;;0.77;;
40314;SDS011;26021;45.640;11.302;2022-11-12T03:21:37;0.73;;;0.70;;
40314;SDS011;26021;45.640;11.302;2022-11-12T03:24:02;2.42;;;1.00;;
40314;SDS011;26021;45.640;11.302;2022-11-12T03:26:27;0.80;;;0.80;;
40314;SDS011;26021;45.640;11.302;2022-11-12T03:28:53;1.38;;;0.80;;
40314;SDS011;26021;45.640;11.302;2022-11-12T03:31:18;6.40;;;5.80;;
40314;SDS011;26021;45.640;11.302;2022-11-12T03:33:44;3.10;;;1.90;;
40314;SDS011;26021;45.640;11.302;2022-11-12T03:36:09;1.13;;;1.02;;
40314;SDS011;26021;45.640;11.302;2022-11-12T03:38:36;1.77;;;1.00;;
40314;SDS011;26021;45.640;11.302;2022-11-12T03:41:01;1.20;;;1.00;;
40314;SDS011;26021;45.640;11.302;2022-11-12T03:43:26;2.05;;;1.40;;
40314;SDS011;26021;45.640;11.302;2022-11-12T03:45:52;4.20;;;1.35;;
40314;SDS011;26021;45.640;11.302;2022-11-12T03:48:17;3.15;;;1.48;;
40314;SDS011;26021;45.640;11.302;2022-11-12T03:50:42;1.88;;;1.10;;
40314;SDS011;26021;45.640;11.302;2022-11-12T03:53:08;3.65;;;1.45;;
40314;SDS011;26021;45.640;11.302;2022-11-12T03:55:34;2.13;;;1.60;;
40314;SDS011;26021;45.640;11.302;2022-11-12T03:57:59;3.45;;;1.90;;
40314;SDS011;26021;45.640;11.302;2022-11-12T04:00:25;3.58;;;2.00;;
40314;SDS011;26021;45.640;11.302;2022-11-12T04:02:52;3.47;;;1.90;;
40314;SDS011;26021;45.640;11.302;2022-11-12T04:05:17;3.38;;;1.60;;
40314;SDS011;26021;45.640;11.302;2022-11-12T04:08:03;3.38;;;1.85;;
40314;SDS011;26021;45.640;11.302;2022-11-12T04:10:55;3.72;;;2.10;;
40314;SDS011;26021;45.640;11.302;2022-11-12T04:13:21;4.40;;;2.55;;
40314;SDS011;26021;45.640;11.302;2022-11-12T04:16:03;7.95;;;3.33;;
40314;SDS011;26021;45.640;11.302;2022-11-12T04:18:55;6.80;;;3.17;;
40314;SDS011;26021;45.640;11.302;2022-11-12T04:21:49;5.05;;;2.45;;
40314;SDS011;26021;45.640;11.302;2022-11-12T04:24:26;5.50;;;2.75;;
40314;SDS011;26021;45.640;11.302;2022-11-12T04:27:24;3.27;;;1.77;;
40314;SDS011;26021;45.640;11.302;2022-11-12T04:29:49;2.92;;;1.50;;
40314;SDS011;26021;45.640;11.302;2022-11-12T04:32:35;3.55;;;1.55;;
40314;SDS011;26021;45.640;11.302;2022-11-12T04:35:02;2.38;;;1.45;;
40314;SDS011;26021;45.640;11.302;2022-11-12T04:37:30;1.48;;;1.20;;
40314;SDS011;26021;45.640;11.302;2022-11-12T04:40:29;2.78;;;1.58;;
40314;SDS011;26021;45.640;11.302;2022-11-12T04:43:13;2.72;;;1.30;;
40314;SDS011;26021;45.640;11.302;2022-11-12T04:45:59;1.45;;;1.00;;
40314;SDS011;26021;45.640;11.302;2022-11-12T04:48:26;1.20;;;1.10;;
40314;SDS011;26021;45.640;11.302;2022-11-12T04:50:56;1.90;;;1.40;;
40314;SDS011;26021;45.640;11.302;2022-11-12T04:53:23;1.65;;;1.35;;
40314;SDS011;26021;45.640;11.302;2022-11-12T04:55:49;3.03;;;1.50;;
40314;SDS011;26021;45.640;11.302;2022-11-12T04:58:15;2.70;;;1.00;;
40314;SDS011;26021;45.640;11.302;2022-11-12T05:00:41;1.90;;;1.00;;
40314;SDS011;26021;45.640;11.302;2022-11-12T05:03:06;1.35;;;1.13;;
40314;SDS011;26021;45.640;11.302;2022-11-12T05:05:32;1.45;;;1.10;;
40314;SDS011;26021;45.640;11.302;2022-11-12T05:07:59;25.73;;;23.35;;
40314;SDS011;26021;45.640;11.302;2022-11-12T05:10:25;3.28;;;3.00;;
40314;SDS011;26021;45.640;11.302;2022-11-12T05:12:50;1.17;;;0.98;;
40314;SDS011;26021;45.640;11.302;2022-11-12T05:15:15;1.88;;;1.67;;
40314;SDS011;26021;45.640;11.302;2022-11-12T05:17:42;1.65;;;1.55;;
40314;SDS011;26021;45.640;11.302;2022-11-12T05:20:08;1.92;;;1.60;;
40314;SDS011;26021;45.640;11.302;2022-11-12T05:22:37;1.40;;;1.30;;
40314;SDS011;26021;45.640;11.302;2022-11-12T05:25:03;1.25;;;1.23;;
40314;SDS011;26021;45.640;11.302;2022-11-12T05:27:29;1.70;;;1.60;;
40314;SDS011;26021;45.640;11.302;2022-11-12T05:29:55;1.88;;;1.70;;
40314;SDS011;26021;45.640;11.302;2022-11-12T05:32:20;2.08;;;1.52;;
40314;SDS011;26021;45.640;11.302;2022-11-12T05:34:45;4.97;;;1.83;;
40314;SDS011;26021;45.640;11.302;2022-11-12T05:37:11;2.38;;;1.63;;
40314;SDS011;26021;45.640;11.302;2022-11-12T05:39:38;2.00;;;1.77;;
40314;SDS011;26021;45.640;11.302;2022-11-12T05:42:03;1.90;;;1.63;;
40314;SDS011;26021;45.640;11.302;2022-11-12T05:44:29;1.63;;;1.52;;
40314;SDS011;26021;45.640;11.302;2022-11-12T05:46:54;2.83;;;1.80;;
40314;SDS011;26021;45.640;11.302;2022-11-12T05:49:20;2.67;;;1.60;;
40314;SDS011;26021;45.640;11.302;2022-11-12T05:51:45;2.40;;;1.50;;
40314;SDS011;26021;45.640;11.302;2022-11-12T05:54:11;1.95;;;1.58;;
40314;SDS011;26021;45.640;11.302;2022-11-12T05:56:36;2.00;;;1.67;;
40314;SDS011;26021;45.640;11.302;2022-11-12T05:59:03;4.85;;;1.98;;
40314;SDS011;26021;45.640;11.302;2022-11-12T06:01:30;2.45;;;1.65;;
40314;SDS011;26021;45.640;11.302;2022-11-12T06:03:56;2.25;;;1.90;;
40314;SDS011;26021;45.640;11.302;2022-11-12T06:06:22;3.78;;;2.10;;
40314;SDS011;26021;45.640;11.302;2022-11-12T06:08:47;1.77;;;1.40;;
40314;SDS011;26021;45.640;11.302;2022-11-12T06:11:13;2.08;;;1.88;;
40314;SDS011;26021;45.640;11.302;2022-11-12T06:13:38;3.03;;;1.92;;
40314;SDS011;26021;45.640;11.302;2022-11-12T06:16:04;3.90;;;2.53;;
40314;SDS011;26021;45.640;11.302;2022-11-12T06:18:30;5.45;;;2.30;;
40314;SDS011;26021;45.640;11.302;2022-11-12T06:21:05;2.80;;;2.33;;
40314;SDS011;26021;45.640;11.302;2022-11-12T06:23:47;4.00;;;3.15;;
40314;SDS011;26021;45.640;11.302;2022-11-12T06:26:13;6.68;;;3.65;;
40314;SDS011;26021;45.640;11.302;2022-11-12T06:28:38;4.00;;;2.78;;
40314;SDS011;26021;45.640;11.302;2022-11-12T06:31:04;3.50;;;2.65;;
40314;SDS011;26021;45.640;11.302;2022-11-12T06:33:29;4.38;;;3.20;;
40314;SDS011;26021;45.640;11.302;2022-11-12T06:35:59;3.83;;;3.20;;
40314;SDS011;26021;45.640;11.302;2022-11-12T06:38:30;6.30;;;3.50;;
40314;SDS011;26021;45.640;11.302;2022-11-12T06:43:27;4.10;;;3.60;;
40314;SDS011;26021;45.640;11.302;2022-11-12T06:45:57;4.57;;;3.58;;
40314;SDS011;26021;45.640;11.302;2022-11-12T06:48:23;4.80;;;3.78;;
40314;SDS011;26021;45.640;11.302;2022-11-12T06:50:49;5.95;;;3.70;;
40314;SDS011;26021;45.640;11.302;2022-11-12T06:53:14;4.13;;;3.72;;
40314;SDS011;26021;45.640;11.302;2022-11-12T06:55:39;4.20;;;3.78;;
40314;SDS011;26021;45.640;11.302;2022-11-12T06:58:05;5.97;;;4.90;;
40314;SDS011;26021;45.640;11.302;2022-11-12T07:00:30;6.53;;;5.30;;
40314;SDS011;26021;45.640;11.302;2022-11-12T07:02:55;5.97;;;5.32;;
40314;SDS011;26021;45.640;11.302;2022-11-12T07:05:21;7.88;;;7.07;;
40314;SDS011;26021;45.640;11.302;2022-11-12T07:07:46;9.45;;;8.07;;
40314;SDS011;26021;45.640;11.302;2022-11-12T07:10:12;8.35;;;7.40;;
40314;SDS011;26021;45.640;11.302;2022-11-12T07:12:37;7.45;;;6.50;;
40314;SDS011;26021;45.640;11.302;2022-11-12T07:15:02;6.95;;;6.25;;
40314;SDS011;26021;45.640;11.302;2022-11-12T07:17:28;12.65;;;9.25;;
40314;SDS011;26021;45.640;11.302;2022-11-12T07:19:54;5.90;;;4.70;;
40314;SDS011;26021;45.640;11.302;2022-11-12T07:22:20;8.57;;;6.78;;
40314;SDS011;26021;45.640;11.302;2022-11-12T07:24:45;7.57;;;5.93;;
40314;SDS011;26021;45.640;11.302;2022-11-12T07:27:10;12.13;;;9.75;;
40314;SDS011;26021;45.640;11.302;2022-11-12T07:29:36;17.92;;;13.60;;
40314;SDS011;26021;45.640;11.302;2022-11-12T07:32:01;21.50;;;15.45;;
40314;SDS011;26021;45.640;11.302;2022-11-12T07:34:26;29.80;;;19.50;;
40314;SDS011;26021;45.640;11.302;2022-11-12T07:36:52;16.50;;;11.00;;
40314;SDS011;26021;45.640;11.302;2022-11-12T07:39:17;16.83;;;11.15;;
40314;SDS011;26021;45.640;11.302;2022-11-12T07:41:43;49.17;;;32.53;;
40314;SDS011;26021;45.640;11.302;2022-11-12T07:44:08;41.85;;;27.88;;
40314;SDS011;26021;45.640;11.302;2022-11-12T07:46:34;27.58;;;19.50;;
40314;SDS011;26021;45.640;11.302;2022-11-12T07:48:59;22.45;;;13.82;;
40314;SDS011;26021;45.640;11.302;2022-11-12T07:51:26;17.88;;;14.02;;
40314;SDS011;26021;45.640;11.302;2022-11-12T07:53:53;20.23;;;15.32;;
40314;SDS011;26021;45.640;11.302;2022-11-12T07:56:21;22.88;;;15.65;;
40314;SDS011;26021;45.640;11.302;2022-11-12T07:58:48;16.27;;;11.35;;
40314;SDS011;26021;45.640;11.302;2022-11-12T08:04:00;19.85;;;13.25;;
40314;SDS011;26021;45.640;11.302;2022-11-12T08:06:27;77.93;;;40.92;;
40314;SDS011;26021;45.640;11.302;2022-11-12T08:08:54;69.95;;;38.13;;
40314;SDS011;26021;45.640;11.302;2022-11-12T08:11:21;34.25;;;20.58;;
40314;SDS011;26021;45.640;11.302;2022-11-12T08:13:47;18.20;;;12.48;;
40314;SDS011;26021;45.640;11.302;2022-11-12T08:16:13;227.00;;;100.65;;
40314;SDS011;26021;45.640;11.302;2022-11-12T08:18:38;62.83;;;31.02;;
40314;SDS011;26021;45.640;11.302;2022-11-12T08:21:05;20.50;;;12.40;;
40314;SDS011;26021;45.640;11.302;2022-11-12T08:23:32;9.80;;;6.10;;
40314;SDS011;26021;45.640;11.302;2022-11-12T08:25:58;8.40;;;5.25;;
40314;SDS011;26021;45.640;11.302;2022-11-12T08:28:24;7.18;;;4.53;;
40314;SDS011;26021;45.640;11.302;2022-11-12T08:30:50;13.02;;;7.88;;
40314;SDS011;26021;45.640;11.302;2022-11-12T08:33:15;24.52;;;13.05;;
40314;SDS011;26021;45.640;11.302;2022-11-12T08:35:41;10.07;;;6.05;;
40314;SDS011;26021;45.640;11.302;2022-11-12T08:38:06;17.17;;;11.27;;
40314;SDS011;26021;45.640;11.302;2022-11-12T08:40:33;18.83;;;12.30;;
40314;SDS011;26021;45.640;11.302;2022-11-12T08:42:59;17.20;;;12.48;;
40314;SDS011;26021;45.640;11.302;2022-11-12T08:45:27;17.48;;;11.95;;
40314;SDS011;26021;45.640;11.302;2022-11-12T08:47:57;15.77;;;11.18;;
40314;SDS011;26021;45.640;11.302;2022-11-12T08:50:23;12.82;;;9.63;;
40314;SDS011;26021;45.640;11.302;2022-11-12T08:52:49;9.65;;;8.10;;
40314;SDS011;26021;45.640;11.302;2022-11-12T08:55:14;10.55;;;7.95;;
40314;SDS011;26021;45.640;11.302;2022-11-12T08:57:40;9.27;;;6.05;;
40314;SDS011;26021;45.640;11.302;2022-11-12T09:00:07;8.23;;;5.80;;
40314;SDS011;26021;45.640;11.302;2022-11-12T09:02:34;8.77;;;5.95;;
40314;SDS011;26021;45.640;11.302;2022-11-12T09:04:59;9.60;;;6.10;;
40314;SDS011;26021;45.640;11.302;2022-11-12T09:07:24;11.40;;;6.63;;
40314;SDS011;26021;45.640;11.302;2022-11-12T09:09:50;8.60;;;6.68;;
40314;SDS011;26021;45.640;11.302;2022-11-12T09:12:15;8.05;;;5.70;;
40314;SDS011;26021;45.640;11.302;2022-11-12T09:14:43;9.90;;;5.65;;
40314;SDS011;26021;45.640;11.302;2022-11-12T09:17:09;8.45;;;6.03;;
40314;SDS011;26021;45.640;11.302;2022-11-12T09:19:34;11.70;;;6.75;;
40314;SDS011;26021;45.640;11.302;2022-11-12T09:22:00;11.13;;;7.88;;
40314;SDS011;26021;45.640;11.302;2022-11-12T09:24:25;12.15;;;6.72;;
40314;SDS011;26021;45.640;11.302;2022-11-12T09:26:53;7.18;;;5.38;;
40314;SDS011;26021;45.640;11.302;2022-11-12T09:29:19;7.97;;;5.60;;
40314;SDS011;26021;45.640;11.302;2022-11-12T09:31:45;5.90;;;4.75;;
40314;SDS011;26021;45.640;11.302;2022-11-12T09:34:11;7.82;;;5.05;;
40314;SDS011;26021;45.640;11.302;2022-11-12T09:36:37;5.68;;;4.72;;
40314;SDS011;26021;45.640;11.302;2022-11-12T09:39:02;8.68;;;5.35;;
40314;SDS011;26021;45.640;11.302;2022-11-12T09:41:35;6.57;;;4.80;;
40314;SDS011;26021;45.640;11.302;2022-11-12T09:44:08;7.70;;;5.65;;
40314;SDS011;26021;45.640;11.302;2022-11-12T09:49:17;8.70;;;6.30;;
40314;SDS011;26021;45.640;11.302;2022-11-12T09:56:54;14.25;;;8.50;;
40314;SDS011;26021;45.640;11.302;2022-11-12T09:59:20;12.95;;;8.15;;
40314;SDS011;26021;45.640;11.302;2022-11-12T10:01:49;11.40;;;7.38;;
40314;SDS011;26021;45.640;11.302;2022-11-12T10:07:22;10.10;;;5.53;;
40314;SDS011;26021;45.640;11.302;2022-11-12T10:13:24;4.90;;;3.35;;
40314;SDS011;26021;45.640;11.302;2022-11-12T10:24:48;3.75;;;3.03;;
40314;SDS011;26021;45.640;11.302;2022-11-12T10:27:18;4.07;;;3.30;;
40314;SDS011;26021;45.640;11.302;2022-11-12T10:29:57;5.70;;;4.18;;
40314;SDS011;26021;45.640;11.302;2022-11-12T10:32:26;5.85;;;4.13;;
40314;SDS011;26021;45.640;11.302;2022-11-12T10:34:52;6.45;;;3.95;;
40314;SDS011;26021;45.640;11.302;2022-11-12T10:40:46;9.98;;;6.03;;
40314;SDS011;26021;45.640;11.302;2022-11-12T10:42:59;9.93;;;6.72;;
40314;SDS011;26021;45.640;11.302;2022-11-12T10:45:27;8.73;;;6.00;;
40314;SDS011;26021;45.640;11.302;2022-11-12T10:47:53;8.40;;;5.90;;
40314;SDS011;26021;45.640;11.302;2022-11-12T10:55:33;7.18;;;6.03;;
40314;SDS011;26021;45.640;11.302;2022-11-12T11:00:29;7.68;;;6.03;;
40314;SDS011;26021;45.640;11.302;2022-11-12T11:02:54;7.60;;;5.47;;
40314;SDS011;26021;45.640;11.302;2022-11-12T11:07:54;6.65;;;4.82;;
40314;SDS011;26021;45.640;11.302;2022-11-12T11:10:30;5.68;;;4.35;;
40314;SDS011;26021;45.640;11.302;2022-11-12T11:16:07;4.78;;;4.25;;
40314;SDS011;26021;45.640;11.302;2022-11-12T11:18:34;4.60;;;4.10;;
40314;SDS011;26021;45.640;11.302;2022-11-12T11:24:26;5.50;;;3.60;;
40314;SDS011;26021;45.640;11.302;2022-11-12T11:27:11;4.20;;;3.80;;
40314;SDS011;26021;45.640;11.302;2022-11-12T11:33:01;6.32;;;3.65;;
40314;SDS011;26021;45.640;11.302;2022-11-12T11:49:28;7.32;;;4.93;;
40314;SDS011;26021;45.640;11.302;2022-11-12T11:57:23;8.15;;;5.90;;
40314;SDS011;26021;45.640;11.302;2022-11-12T12:06:00;11.40;;;7.70;;
40314;SDS011;26021;45.640;11.302;2022-11-12T12:08:09;11.40;;;8.45;;
40314;SDS011;26021;45.640;11.302;2022-11-12T12:10:44;9.38;;;8.20;;
40314;SDS011;26021;45.640;11.302;2022-11-12T12:13:35;9.50;;;7.85;;
40314;SDS011;26021;45.640;11.302;2022-11-12T12:19:24;11.38;;;7.03;;
40314;SDS011;26021;45.640;11.302;2022-11-12T12:22:14;6.60;;;5.90;;
40314;SDS011;26021;45.640;11.302;2022-11-12T12:27:49;8.38;;;6.65;;
40314;SDS011;26021;45.640;11.302;2022-11-12T12:30:22;12.38;;;7.97;;
40314;SDS011;26021;45.640;11.302;2022-11-12T12:38:11;10.70;;;7.55;;
40314;SDS011;26021;45.640;11.302;2022-11-12T12:40:53;8.93;;;7.22;;
40314;SDS011;26021;45.640;11.302;2022-11-12T12:46:10;7.70;;;6.77;;
40314;SDS011;26021;45.640;11.302;2022-11-12T12:48:41;12.07;;;7.18;;
40314;SDS011;26021;45.640;11.302;2022-11-12T12:51:08;7.50;;;6.70;;
40314;SDS011;26021;45.640;11.302;2022-11-12T12:53:35;7.78;;;6.80;;
40314;SDS011;26021;45.640;11.302;2022-11-12T12:56:04;8.88;;;7.20;;
40314;SDS011;26021;45.640;11.302;2022-11-12T12:58:51;8.73;;;7.18;;
40314;SDS011;26021;45.640;11.302;2022-11-12T13:06:24;11.30;;;7.90;;
40314;SDS011;26021;45.640;11.302;2022-11-12T13:19:27;9.57;;;7.82;;
40314;SDS011;26021;45.640;11.302;2022-11-12T13:35:25;11.85;;;9.48;;
40314;SDS011;26021;45.640;11.302;2022-11-12T13:43:15;12.10;;;8.40;;
40314;SDS011;26021;45.640;11.302;2022-11-12T13:46:08;9.00;;;7.43;;
40314;SDS011;26021;45.640;11.302;2022-11-12T13:48:47;8.45;;;6.85;;
40314;SDS011;26021;45.640;11.302;2022-11-12T13:53:56;8.15;;;7.15;;
40314;SDS011;26021;45.640;11.302;2022-11-12T13:56:26;10.02;;;7.80;;
40314;SDS011;26021;45.640;11.302;2022-11-12T13:58:52;9.27;;;7.70;;
40314;SDS011;26021;45.640;11.302;2022-11-12T14:01:18;10.38;;;7.82;;
40314;SDS011;26021;45.640;11.302;2022-11-12T14:03:47;14.05;;;10.48;;
40314;SDS011;26021;45.640;11.302;2022-11-12T14:06:19;12.02;;;9.82;;
40314;SDS011;26021;45.640;11.302;2022-11-12T14:11:55;13.50;;;10.27;;
40314;SDS011;26021;45.640;11.302;2022-11-12T14:14:35;11.93;;;10.63;;
40314;SDS011;26021;45.640;11.302;2022-11-12T14:22:24;15.95;;;14.25;;
40314;SDS011;26021;45.640;11.302;2022-11-12T14:24:58;23.60;;;19.23;;
40314;SDS011;26021;45.640;11.302;2022-11-12T14:32:38;29.23;;;19.30;;
40314;SDS011;26021;45.640;11.302;2022-11-12T14:35:15;17.20;;;14.55;;
40314;SDS011;26021;45.640;11.302;2022-11-12T14:37:51;22.73;;;20.33;;
40314;SDS011;26021;45.640;11.302;2022-11-12T14:40:24;61.65;;;55.67;;
40314;SDS011;26021;45.640;11.302;2022-11-12T14:42:52;32.05;;;28.67;;
40314;SDS011;26021;45.640;11.302;2022-11-12T14:45:21;26.92;;;24.25;;
40314;SDS011;26021;45.640;11.302;2022-11-12T14:47:48;21.45;;;19.33;;
40314;SDS011;26021;45.640;11.302;2022-11-12T14:50:17;17.67;;;15.77;;
40314;SDS011;26021;45.640;11.302;2022-11-12T14:52:50;17.77;;;14.50;;
40314;SDS011;26021;45.640;11.302;2022-11-12T14:55:31;16.60;;;13.00;;
40314;SDS011;26021;45.640;11.302;2022-11-12T14:57:59;18.50;;;14.57;;
40314;SDS011;26021;45.640;11.302;2022-11-12T15:03:02;22.05;;;16.20;;
40314;SDS011;26021;45.640;11.302;2022-11-12T15:05:28;20.85;;;15.07;;
40314;SDS011;26021;45.640;11.302;2022-11-12T15:08:12;22.88;;;17.48;;
40314;SDS011;26021;45.640;11.302;2022-11-12T15:10:51;19.90;;;15.80;;
40314;SDS011;26021;45.640;11.302;2022-11-12T15:13:20;26.30;;;16.70;;
40314;SDS011;26021;45.640;11.302;2022-11-12T15:18:14;22.48;;;15.85;;
40314;SDS011;26021;45.640;11.302;2022-11-12T15:20:42;20.30;;;13.88;;
40314;SDS011;26021;45.640;11.302;2022-11-12T15:23:17;20.73;;;14.73;;
40314;SDS011;26021;45.640;11.302;2022-11-12T15:25:43;24.90;;;17.05;;
40314;SDS011;26021;45.640;11.302;2022-11-12T15:28:27;25.45;;;18.67;;
40314;SDS011;26021;45.640;11.302;2022-11-12T15:31:00;20.13;;;13.93;;
40314;SDS011;26021;45.640;11.302;2022-11-12T15:33:42;14.88;;;11.38;;
40314;SDS011;26021;45.640;11.302;2022-11-12T15:36:15;25.90;;;17.70;;
40314;SDS011;26021;45.640;11.302;2022-11-12T15:38:46;19.90;;;13.05;;
40314;SDS011;26021;45.640;11.302;2022-11-12T15:41:24;17.75;;;11.80;;
40314;SDS011;26021;45.640;11.302;2022-11-12T15:43:54;30.52;;;20.17;;
40314;SDS011;26021;45.640;11.302;2022-11-12T15:46:19;34.00;;;25.50;;
40314;SDS011;26021;45.640;11.302;2022-11-12T15:48:45;22.55;;;14.65;;
40314;SDS011;26021;45.640;11.302;2022-11-12T15:51:11;19.48;;;12.90;;
40314;SDS011;26021;45.640;11.302;2022-11-12T15:53:41;15.35;;;10.65;;
40314;SDS011;26021;45.640;11.302;2022-11-12T15:56:13;16.65;;;12.13;;
40314;SDS011;26021;45.640;11.302;2022-11-12T15:58:43;17.65;;;13.70;;
40314;SDS011;26021;45.640;11.302;2022-11-12T16:01:09;15.73;;;12.90;;
40314;SDS011;26021;45.640;11.302;2022-11-12T16:03:35;20.92;;;13.85;;
40314;SDS011;26021;45.640;11.302;2022-11-12T16:06:00;20.77;;;15.10;;
40314;SDS011;26021;45.640;11.302;2022-11-12T16:08:26;27.02;;;17.13;;
40314;SDS011;26021;45.640;11.302;2022-11-12T16:10:51;28.42;;;20.52;;
40314;SDS011;26021;45.640;11.302;2022-11-12T16:13:19;32.25;;;23.52;;
40314;SDS011;26021;45.640;11.302;2022-11-12T16:15:51;26.55;;;19.17;;
40314;SDS011;26021;45.640;11.302;2022-11-12T16:18:16;30.33;;;21.13;;
40314;SDS011;26021;45.640;11.302;2022-11-12T16:20:42;16.98;;;13.93;;
40314;SDS011;26021;45.640;11.302;2022-11-12T16:23:07;16.92;;;12.90;;
40314;SDS011;26021;45.640;11.302;2022-11-12T16:25:34;17.45;;;12.75;;
40314;SDS011;26021;45.640;11.302;2022-11-12T16:28:01;31.83;;;22.10;;
40314;SDS011;26021;45.640;11.302;2022-11-12T16:30:31;29.90;;;20.50;;
40314;SDS011;26021;45.640;11.302;2022-11-12T16:32:58;30.15;;;20.08;;
40314;SDS011;26021;45.640;11.302;2022-11-12T16:35:25;18.08;;;12.90;;
40314;SDS011;26021;45.640;11.302;2022-11-12T16:37:51;13.63;;;10.65;;
40314;SDS011;26021;45.640;11.302;2022-11-12T16:40:22;16.02;;;10.93;;
40314;SDS011;26021;45.640;11.302;2022-11-12T16:42:50;14.70;;;10.68;;
40314;SDS011;26021;45.640;11.302;2022-11-12T16:45:23;18.10;;;11.73;;
40314;SDS011;26021;45.640;11.302;2022-11-12T16:47:56;35.00;;;26.92;;
40314;SDS011;26021;45.640;11.302;2022-11-12T16:50:23;34.67;;;24.88;;
40314;SDS011;26021;45.640;11.302;2022-11-12T16:52:50;27.95;;;22.02;;
40314;SDS011;26021;45.640;11.302;2022-11-12T16:55:16;14.60;;;12.68;;
40314;SDS011;26021;45.640;11.302;2022-11-12T16:57:43;12.90;;;10.30;;
40314;SDS011;26021;45.640;11.302;2022-11-12T17:00:09;13.77;;;12.25;;